Time;durP1;ratioP1;P1;durP2;ratioP2;P2;SDS_P1;SDS_P2;PMS_P1;PMS_P2;Temp;Humidity;BMP_temperature;BMP_pressure;BME280_temperature;BME280_humidity;BME280_pressure;Samples;Min_cycle;Max_cycle;Signal;HPM_P1;HPM_P2
2021/10/29 00:00:13;;;;;;;104.97;49.00;;;;;;;;;;4434634;32;20624;-55
2021/10/29 00:02:39;;;;;;;102.13;47.40;;;;;;;;;;4434465;32;20527;-54
2021/10/29 00:05:05;;;;;;;83.67;42.13;;;;;;;;;;4434476;32;20798;-53
2021/10/29 00:07:30;;;;;;;91.63;45.53;;;;;;;;;;4434677;32;20283;-52
2021/10/29 00:09:56;;;;;;;81.00;42.63;;;;;;;;;;4434872;32;20726;-52
2021/10/29 00:12:22;;;;;;;103.40;46.30;;;;;;;;;;4434527;32;20610;-54
2021/10/29 00:14:49;;;;;;;85.57;44.43;;;;;;;;;;4434043;32;20251;-54
2021/10/29 00:17:14;;;;;;;92.97;46.17;;;;;;;;;;4433626;32;20306;-54
2021/10/29 00:19:40;;;;;;;97.50;49.30;;;;;;;;;;4434378;32;20442;-53
2021/10/29 00:22:06;;;;;;;95.53;46.07;;;;;;;;;;4434627;32;20265;-54
2021/10/29 00:24:32;;;;;;;100.17;45.67;;;;;;;;;;4433909;32;20267;-54
2021/10/29 00:26:57;;;;;;;83.40;43.80;;;;;;;;;;4434366;32;20634;-54
2021/10/29 00:29:23;;;;;;;89.87;44.87;;;;;;;;;;4434593;32;20264;-54
2021/10/29 00:31:49;;;;;;;98.30;46.77;;;;;;;;;;4434032;32;20262;-53
2021/10/29 00:34:15;;;;;;;92.70;46.90;;;;;;;;;;4434471;32;20306;-54
2021/10/29 00:36:40;;;;;;;92.80;47.80;;;;;;;;;;4433938;32;20533;-53
2021/10/29 00:39:06;;;;;;;95.63;50.07;;;;;;;;;;4434709;32;20295;-53
2021/10/29 00:41:36;;;;;;;92.63;49.27;;;;;;;;;;4434066;32;20296;-53
2021/10/29 00:44:04;;;;;;;86.77;45.67;;;;;;;;;;4434492;32;20228;-54
2021/10/29 00:46:30;;;;;;;102.47;49.83;;;;;;;;;;4433405;32;20424;-53
2021/10/29 00:48:56;;;;;;;108.30;53.60;;;;;;;;;;4434497;32;20260;-54
2021/10/29 00:51:22;;;;;;;124.33;59.43;;;;;;;;;;4433953;32;20244;-53
2021/10/29 00:53:49;;;;;;;114.07;56.53;;;;;;;;;;4434313;32;20272;-55
2021/10/29 00:56:16;;;;;;;94.90;46.27;;;;;;;;;;4433553;32;20252;-53
2021/10/29 00:58:42;;;;;;;83.93;41.80;;;;;;;;;;4434143;32;20286;-53
2021/10/29 01:01:08;;;;;;;84.80;42.47;;;;;;;;;;4433431;32;20240;-54
2021/10/29 01:03:38;;;;;;;80.87;39.80;;;;;;;;;;4433285;32;20201;-54
2021/10/29 01:06:04;;;;;;;82.33;40.63;;;;;;;;;;4433971;32;20217;-55
2021/10/29 01:08:30;;;;;;;89.57;39.37;;;;;;;;;;4434306;32;20314;-54
2021/10/29 01:10:56;;;;;;;67.00;35.10;;;;;;;;;;4433868;32;20337;-54
2021/10/29 01:13:21;;;;;;;56.37;32.23;;;;;;;;;;4433921;32;20467;-54
2021/10/29 01:15:47;;;;;;;67.83;32.87;;;;;;;;;;4433432;32;20786;-53
2021/10/29 01:18:13;;;;;;;62.47;32.70;;;;;;;;;;4432297;32;20327;-55
2021/10/29 01:20:38;;;;;;;50.03;27.93;;;;;;;;;;4426537;32;20205;-53
2021/10/29 01:23:04;;;;;;;52.07;25.90;;;;;;;;;;4433162;32;20236;-53
2021/10/29 01:25:29;;;;;;;49.00;26.80;;;;;;;;;;4432619;32;20394;-54
2021/10/29 01:27:55;;;;;;;57.37;27.33;;;;;;;;;;4432521;32;20715;-52
2021/10/29 01:30:20;;;;;;;51.03;26.73;;;;;;;;;;4431158;32;20280;-52
2021/10/29 01:32:46;;;;;;;51.47;27.43;;;;;;;;;;4433207;32;20549;-52
2021/10/29 01:35:13;;;;;;;58.37;30.43;;;;;;;;;;4431146;32;20284;-53
2021/10/29 01:37:40;;;;;;;52.00;29.20;;;;;;;;;;4432512;32;20282;-53
2021/10/29 01:40:08;;;;;;;52.27;28.37;;;;;;;;;;4431159;32;20292;-53
2021/10/29 01:42:35;;;;;;;59.23;31.37;;;;;;;;;;4432476;32;20275;-52
2021/10/29 01:45:00;;;;;;;58.73;31.70;;;;;;;;;;4432236;32;20793;-52
2021/10/29 01:47:26;;;;;;;61.60;30.80;;;;;;;;;;4432329;32;20241;-55
2021/10/29 01:49:52;;;;;;;72.73;40.03;;;;;;;;;;4432208;32;20317;-53
2021/10/29 01:52:17;;;;;;;80.47;38.23;;;;;;;;;;4432258;32;20225;-53
2021/10/29 01:54:42;;;;;;;80.80;41.50;;;;;;;;;;4431320;32;20283;-54
2021/10/29 01:57:08;;;;;;;76.83;40.77;;;;;;;;;;4429665;32;20742;-54
2021/10/29 01:59:34;;;;;;;68.97;40.60;;;;;;;;;;4431732;32;20689;-54
2021/10/29 02:01:59;;;;;;;78.27;38.27;;;;;;;;;;4432203;32;20674;-52
2021/10/29 02:04:25;;;;;;;60.37;34.67;;;;;;;;;;4432137;32;20432;-55
2021/10/29 02:06:51;;;;;;;60.10;33.20;;;;;;;;;;4432923;32;20300;-54
2021/10/29 02:09:17;;;;;;;56.93;32.03;;;;;;;;;;4432144;32;20272;-55
2021/10/29 02:11:43;;;;;;;68.70;33.83;;;;;;;;;;4432437;32;20635;-54
2021/10/29 02:14:09;;;;;;;60.67;30.40;;;;;;;;;;4431938;32;20616;-55
2021/10/29 02:16:35;;;;;;;62.00;32.23;;;;;;;;;;4432117;32;20646;-55
2021/10/29 02:19:01;;;;;;;65.03;31.10;;;;;;;;;;4432284;32;20221;-55
2021/10/29 02:21:30;;;;;;;59.30;31.40;;;;;;;;;;4431982;32;20228;-54
2021/10/29 02:23:57;;;;;;;62.10;33.10;;;;;;;;;;4431433;32;20364;-54
2021/10/29 02:26:23;;;;;;;59.40;29.77;;;;;;;;;;4430984;32;20239;-54
2021/10/29 02:28:49;;;;;;;60.40;30.27;;;;;;;;;;4432663;32;20608;-53
2021/10/29 02:31:14;;;;;;;69.50;32.43;;;;;;;;;;4432788;32;20228;-53
2021/10/29 02:33:41;;;;;;;55.87;30.60;;;;;;;;;;4432935;32;20696;-53
2021/10/29 02:36:06;;;;;;;55.83;28.97;;;;;;;;;;4432519;32;20225;-53
2021/10/29 02:38:31;;;;;;;51.37;28.13;;;;;;;;;;4432622;32;20264;-53
2021/10/29 02:40:57;;;;;;;56.43;31.53;;;;;;;;;;4432289;32;20795;-53
2021/10/29 02:43:22;;;;;;;60.80;31.73;;;;;;;;;;4432851;32;20354;-54
2021/10/29 02:45:48;;;;;;;60.73;31.47;;;;;;;;;;4432263;32;20336;-54
2021/10/29 02:48:13;;;;;;;58.20;29.47;;;;;;;;;;4431677;32;20359;-54
2021/10/29 02:50:39;;;;;;;58.37;30.30;;;;;;;;;;4432023;32;20331;-53
2021/10/29 02:53:05;;;;;;;59.77;31.93;;;;;;;;;;4432181;32;20769;-54
2021/10/29 02:55:31;;;;;;;81.73;40.97;;;;;;;;;;4432045;32;20419;-55
2021/10/29 02:57:57;;;;;;;76.20;39.90;;;;;;;;;;4432503;32;20650;-54
2021/10/29 03:00:22;;;;;;;48.00;29.80;;;;;;;;;;4431731;32;20302;-55
2021/10/29 03:02:48;;;;;;;55.27;28.20;;;;;;;;;;4430704;32;20232;-54
2021/10/29 03:05:14;;;;;;;52.93;28.73;;;;;;;;;;4432270;32;20279;-54
2021/10/29 03:07:40;;;;;;;58.07;28.10;;;;;;;;;;4432172;32;20209;-54
2021/10/29 03:10:07;;;;;;;53.43;27.20;;;;;;;;;;4431815;32;20307;-56
2021/10/29 03:12:34;;;;;;;45.27;24.70;;;;;;;;;;4432293;32;20381;-56
2021/10/29 03:15:00;;;;;;;50.67;24.90;;;;;;;;;;4431716;32;20518;-55
2021/10/29 03:17:25;;;;;;;50.23;24.80;;;;;;;;;;4432227;32;20249;-53
2021/10/29 03:19:51;;;;;;;45.67;22.10;;;;;;;;;;4432053;32;20310;-54
2021/10/29 03:22:17;;;;;;;43.70;22.63;;;;;;;;;;4430728;32;20355;-54
2021/10/29 03:24:42;;;;;;;50.17;24.07;;;;;;;;;;4431996;32;20366;-53
2021/10/29 03:27:08;;;;;;;38.43;22.63;;;;;;;;;;4431774;32;20304;-52
2021/10/29 03:29:34;;;;;;;56.43;25.70;;;;;;;;;;4431931;32;20299;-53
2021/10/29 03:31:59;;;;;;;50.93;25.00;;;;;;;;;;4431750;32;20330;-53
2021/10/29 03:34:25;;;;;;;54.17;26.53;;;;;;;;;;4432233;32;20805;-52
2021/10/29 03:36:50;;;;;;;54.73;28.13;;;;;;;;;;4432380;32;20225;-52
2021/10/29 03:39:25;;;;;;;61.93;29.90;;;;;;;;;;4432146;32;20271;-52
2021/10/29 03:42:11;;;;;;;67.73;32.60;;;;;;;;;;4431651;32;20232;-51
2021/10/29 03:45:20;;;;;;;59.30;30.50;;;;;;;;;;4431767;32;20276;-52
2021/10/29 03:47:29;;;;;;;50.37;28.33;;;;;;;;;;4429692;32;20213;-53
2021/10/29 03:50:01;;;;;;;56.53;29.67;;;;;;;;;;4431627;32;20330;-53
2021/10/29 03:52:32;;;;;;;59.10;30.20;;;;;;;;;;4431586;32;20221;-51
2021/10/29 03:55:05;;;;;;;63.27;31.90;;;;;;;;;;4430691;32;20658;-52
2021/10/29 03:57:30;;;;;;;87.20;36.73;;;;;;;;;;4431531;32;20703;-52
2021/10/29 03:59:56;;;;;;;94.53;41.47;;;;;;;;;;4428332;32;20272;-52
2021/10/29 04:02:23;;;;;;;92.53;43.27;;;;;;;;;;4430644;32;20232;-52
2021/10/29 04:04:48;;;;;;;85.50;42.87;;;;;;;;;;4431637;32;20550;-52
2021/10/29 04:07:14;;;;;;;94.83;43.97;;;;;;;;;;4431902;32;20306;-53
2021/10/29 04:09:39;;;;;;;90.27;41.63;;;;;;;;;;4431633;32;20336;-54
2021/10/29 04:12:06;;;;;;;92.93;37.67;;;;;;;;;;4431354;32;20299;-55
2021/10/29 04:14:31;;;;;;;77.83;38.87;;;;;;;;;;4432040;32;20689;-54
2021/10/29 04:16:57;;;;;;;77.87;36.60;;;;;;;;;;4431517;32;20304;-54
2021/10/29 04:19:22;;;;;;;78.57;38.47;;;;;;;;;;4431783;32;20375;-56
2021/10/29 04:21:49;;;;;;;84.10;42.50;;;;;;;;;;4432003;32;20271;-53
2021/10/29 04:24:14;;;;;;;81.20;40.60;;;;;;;;;;4430312;32;20318;-55
2021/10/29 04:26:40;;;;;;;82.57;39.63;;;;;;;;;;4431342;32;20296;-54
2021/10/29 04:29:13;;;;;;;72.80;34.20;;;;;;;;;;4431589;32;20267;-56
2021/10/29 04:31:47;;;;;;;70.10;36.43;;;;;;;;;;4431674;32;20244;-54
2021/10/29 04:34:13;;;;;;;63.87;35.70;;;;;;;;;;4431271;32;20223;-55
2021/10/29 04:36:38;;;;;;;83.50;38.30;;;;;;;;;;4431319;32;20644;-55
2021/10/29 04:39:10;;;;;;;73.23;39.10;;;;;;;;;;4434733;32;20284;-54
2021/10/29 04:41:35;;;;;;;79.33;43.40;;;;;;;;;;4433936;32;20625;-54
2021/10/29 04:44:00;;;;;;;87.63;44.73;;;;;;;;;;4434097;32;20298;-55
2021/10/29 04:46:26;;;;;;;102.07;49.70;;;;;;;;;;4434143;32;20549;-55
2021/10/29 04:48:51;;;;;;;110.40;52.57;;;;;;;;;;4434184;32;20268;-55
2021/10/29 04:51:17;;;;;;;92.97;49.00;;;;;;;;;;4433762;32;20620;-55
2021/10/29 04:53:43;;;;;;;94.40;49.73;;;;;;;;;;4434102;32;20750;-55
2021/10/29 04:56:08;;;;;;;102.83;49.13;;;;;;;;;;4433781;32;20733;-56
2021/10/29 04:58:34;;;;;;;99.77;55.17;;;;;;;;;;4434371;32;20338;-54
2021/10/29 05:01:00;;;;;;;90.53;48.80;;;;;;;;;;4433495;32;20276;-54
2021/10/29 05:03:25;;;;;;;98.60;51.33;;;;;;;;;;4433871;32;20200;-54
2021/10/29 05:05:51;;;;;;;104.73;54.90;;;;;;;;;;4433979;32;20807;-54
2021/10/29 05:08:16;;;;;;;98.60;51.33;;;;;;;;;;4433994;32;20294;-52
2021/10/29 05:10:42;;;;;;;94.87;51.97;;;;;;;;;;4433716;32;20313;-52
2021/10/29 05:13:07;;;;;;;93.73;50.33;;;;;;;;;;4433576;32;20209;-52
2021/10/29 05:15:32;;;;;;;119.93;57.13;;;;;;;;;;4433072;32;20313;-51
2021/10/29 05:17:58;;;;;;;110.50;59.40;;;;;;;;;;4433841;32;20694;-52
2021/10/29 05:20:24;;;;;;;122.67;60.90;;;;;;;;;;4433595;32;20291;-52
2021/10/29 05:22:49;;;;;;;130.03;67.97;;;;;;;;;;4433835;32;20213;-52
2021/10/29 05:25:14;;;;;;;126.80;69.00;;;;;;;;;;4426650;32;20389;-53
2021/10/29 05:27:40;;;;;;;124.37;66.10;;;;;;;;;;4433319;32;20264;-52
2021/10/29 05:30:08;;;;;;;130.60;68.47;;;;;;;;;;4433322;32;20606;-52
2021/10/29 05:32:34;;;;;;;120.53;67.70;;;;;;;;;;4433421;32;20289;-52
2021/10/29 05:35:00;;;;;;;133.10;70.17;;;;;;;;;;4433052;32;20576;-53
2021/10/29 05:37:30;;;;;;;141.40;75.73;;;;;;;;;;4432495;32;20240;-53
2021/10/29 05:39:57;;;;;;;129.73;71.83;;;;;;;;;;4431158;32;20217;-52
2021/10/29 05:42:23;;;;;;;122.07;65.50;;;;;;;;;;4433425;32;20653;-51
2021/10/29 05:44:48;;;;;;;107.30;63.40;;;;;;;;;;4433034;32;20405;-54
2021/10/29 05:47:15;;;;;;;121.93;67.23;;;;;;;;;;4433540;32;20320;-53
2021/10/29 05:49:40;;;;;;;117.10;64.10;;;;;;;;;;4428367;32;20228;-53
2021/10/29 05:52:06;;;;;;;109.00;61.57;;;;;;;;;;4431043;32;20252;-52
2021/10/29 05:57:01;;;;;;;111.47;56.40;;;;;;;;;;4432620;32;20240;-53
2021/10/29 05:59:27;;;;;;;102.57;58.00;;;;;;;;;;4432900;32;20232;-53
2021/10/29 06:01:53;;;;;;;115.93;60.57;;;;;;;;;;4431083;32;20366;-53
2021/10/29 06:04:18;;;;;;;98.07;58.03;;;;;;;;;;4431074;32;20397;-53
2021/10/29 06:06:44;;;;;;;94.97;53.37;;;;;;;;;;4429007;32;20290;-53
2021/10/29 06:09:11;;;;;;;108.23;55.20;;;;;;;;;;4426270;32;20307;-55
2021/10/29 06:11:37;;;;;;;88.03;56.30;;;;;;;;;;4430986;32;20437;-54
2021/10/29 06:14:03;;;;;;;95.47;57.07;;;;;;;;;;4431164;32;20291;-55
2021/10/29 06:16:30;;;;;;;114.93;63.67;;;;;;;;;;4431755;32;20216;-53
2021/10/29 06:18:56;;;;;;;119.40;65.67;;;;;;;;;;4433266;32;20770;-54
2021/10/29 06:21:31;;;;;;;121.13;63.90;;;;;;;;;;4432634;32;20314;-54
2021/10/29 06:24:16;;;;;;;129.37;67.87;;;;;;;;;;4433158;32;20231;-54
2021/10/29 06:29:26;;;;;;;130.63;74.47;;;;;;;;;;4432361;32;20342;-53
2021/10/29 06:31:52;;;;;;;154.57;91.50;;;;;;;;;;4432455;32;20379;-55
2021/10/29 06:34:17;;;;;;;170.27;91.60;;;;;;;;;;4432608;32;20315;-57
2021/10/29 06:36:43;;;;;;;139.70;75.37;;;;;;;;;;4432239;32;20333;-55
2021/10/29 06:39:09;;;;;;;126.40;68.37;;;;;;;;;;4433021;32;20267;-55
2021/10/29 06:41:35;;;;;;;97.67;54.83;;;;;;;;;;4432472;32;20331;-55
2021/10/29 06:44:14;;;;;;;104.47;57.53;;;;;;;;;;4432587;32;20707;-56
2021/10/29 06:49:18;;;;;;;113.73;70.83;;;;;;;;;;4432682;32;20253;-54
2021/10/29 07:40:16;;;;;;;61.17;34.70;;;;;;;;;;4424296;32;20298;-54
2021/10/29 07:45:12;;;;;;;48.73;27.57;;;;;;;;;;4424832;32;20230;-56
2021/10/29 07:47:39;;;;;;;36.27;22.63;;;;;;;;;;4430596;32;20229;-56
2021/10/29 07:50:07;;;;;;;52.47;29.47;;;;;;;;;;4430878;32;20265;-56
2021/10/29 07:52:33;;;;;;;43.17;28.47;;;;;;;;;;4431392;32;20296;-55
2021/10/29 07:54:59;;;;;;;50.20;28.00;;;;;;;;;;4419541;32;20337;-56
2021/10/29 07:57:25;;;;;;;47.37;24.87;;;;;;;;;;4428707;32;20300;-56
2021/10/29 07:59:52;;;;;;;39.10;25.70;;;;;;;;;;4425518;32;20379;-57
2021/10/29 08:02:18;;;;;;;40.10;25.17;;;;;;;;;;4422465;32;20312;-55
2021/10/29 08:04:44;;;;;;;45.60;26.50;;;;;;;;;;4421164;32;20371;-56
2021/10/29 08:07:10;;;;;;;55.53;29.73;;;;;;;;;;4429134;32;20639;-55
2021/10/29 08:09:36;;;;;;;39.37;23.47;;;;;;;;;;4421558;32;20307;-56
2021/10/29 08:12:01;;;;;;;34.30;20.97;;;;;;;;;;4431219;32;20401;-56
2021/10/29 08:14:27;;;;;;;37.77;22.83;;;;;;;;;;4424180;32;20688;-58
2021/10/29 08:16:53;;;;;;;40.03;23.57;;;;;;;;;;4432504;32;20218;-57
2021/10/29 08:19:25;;;;;;;40.70;24.20;;;;;;;;;;4432515;32;20592;-56
2021/10/29 08:21:50;;;;;;;33.20;20.40;;;;;;;;;;4423400;32;20584;-55
2021/10/29 08:24:16;;;;;;;35.40;21.10;;;;;;;;;;4431259;32;20267;-55
2021/10/29 08:26:41;;;;;;;35.93;21.57;;;;;;;;;;4434433;32;20534;-55
2021/10/29 08:29:07;;;;;;;49.00;24.83;;;;;;;;;;4433933;32;20283;-55
2021/10/29 08:31:33;;;;;;;50.53;27.83;;;;;;;;;;4426268;32;20704;-55
2021/10/29 08:34:00;;;;;;;36.53;19.50;;;;;;;;;;4432753;32;20314;-55
2021/10/29 08:36:28;;;;;;;34.20;19.00;;;;;;;;;;4433653;32;20233;-55
2021/10/29 08:38:53;;;;;;;33.23;20.77;;;;;;;;;;4433820;32;20209;-54
2021/10/29 08:41:19;;;;;;;34.73;21.93;;;;;;;;;;4434167;32;20612;-54
2021/10/29 08:43:44;;;;;;;32.50;19.27;;;;;;;;;;4434358;32;20291;-55
2021/10/29 08:46:10;;;;;;;40.80;22.83;;;;;;;;;;4434181;32;20315;-55
2021/10/29 08:48:37;;;;;;;35.90;20.53;;;;;;;;;;4433048;32;20747;-56
2021/10/29 08:51:03;;;;;;;31.97;17.90;;;;;;;;;;4434263;32;20228;-56
2021/10/29 08:53:29;;;;;;;29.13;17.50;;;;;;;;;;4433523;32;20307;-56
2021/10/29 08:56:00;;;;;;;54.67;33.93;;;;;;;;;;4428548;32;20814;-55
2021/10/29 08:58:25;;;;;;;51.60;29.53;;;;;;;;;;4433355;32;20299;-55
2021/10/29 09:00:51;;;;;;;29.83;16.53;;;;;;;;;;4427572;32;20403;-56
2021/10/29 09:04:01;;;;;;;37.93;22.53;;;;;;;;;;4432205;32;20291;-55
2021/10/29 09:06:34;;;;;;;24.40;14.37;;;;;;;;;;4425837;32;20228;-54
2021/10/29 09:09:11;;;;;;;19.20;12.73;;;;;;;;;;4432740;32;20265;-54
2021/10/29 09:34:05;;;;;;;24.30;15.87;;;;;;;;;;4418510;32;20267;-54
2021/10/29 09:36:38;;;;;;;36.73;18.20;;;;;;;;;;4418440;32;20694;-55
2021/10/29 09:39:13;;;;;;;27.87;16.17;;;;;;;;;;4418844;32;20331;-54
2021/10/29 09:41:39;;;;;;;28.07;17.23;;;;;;;;;;4426973;32;20209;-54
2021/10/29 09:44:08;;;;;;;19.17;13.13;;;;;;;;;;4434195;32;20311;-56
2021/10/29 09:46:43;;;;;;;20.57;12.70;;;;;;;;;;4434158;32;20220;-54
2021/10/29 09:49:35;;;;;;;22.10;13.37;;;;;;;;;;4433513;32;20617;-55
2021/10/29 09:54:48;;;;;;;26.10;15.93;;;;;;;;;;4433721;32;20571;-55
2021/10/29 09:57:13;;;;;;;22.87;15.00;;;;;;;;;;4433728;32;20220;-55
2021/10/29 09:59:39;;;;;;;16.83;11.73;;;;;;;;;;4434117;32;20260;-56
2021/10/29 10:02:05;;;;;;;15.93;10.43;;;;;;;;;;4426397;32;20427;-54
2021/10/29 10:04:31;;;;;;;19.87;10.47;;;;;;;;;;4434323;32;20284;-56
2021/10/29 10:06:59;;;;;;;16.17;11.53;;;;;;;;;;4434475;32;20229;-55
2021/10/29 10:09:25;;;;;;;16.93;11.50;;;;;;;;;;4433975;32;20295;-55
2021/10/29 10:11:52;;;;;;;23.40;13.90;;;;;;;;;;4433814;32;20297;-55
2021/10/29 10:14:18;;;;;;;22.50;11.13;;;;;;;;;;4434060;32;20318;-54
2021/10/29 10:16:45;;;;;;;20.50;12.60;;;;;;;;;;4434083;32;20630;-54
2021/10/29 10:19:10;;;;;;;101.87;46.67;;;;;;;;;;4434651;32;20288;-54
2021/10/29 10:21:42;;;;;;;43.20;22.43;;;;;;;;;;4434009;32;20271;-53
2021/10/29 10:24:16;;;;;;;44.93;20.73;;;;;;;;;;4434384;32;20227;-54
2021/10/29 10:40:42;;;;;;;15.00;9.17;;;;;;;;;;4433646;32;20294;-54
2021/10/29 10:48:36;;;;;;;15.73;8.10;;;;;;;;;;4433552;32;20269;-54
2021/10/29 10:54:39;;;;;;;13.17;8.40;;;;;;;;;;4433200;32;20553;-54
2021/10/29 10:57:48;;;;;;;14.27;9.23;;;;;;;;;;4432862;32;20594;-55
2021/10/29 11:00:26;;;;;;;13.70;9.57;;;;;;;;;;4429674;32;20592;-54
2021/10/29 11:10:58;;;;;;;16.30;9.70;;;;;;;;;;4417531;32;20189;-54
2021/10/29 11:13:42;;;;;;;22.43;12.80;;;;;;;;;;4423391;32;20216;-53
2021/10/29 11:16:09;;;;;;;13.93;8.03;;;;;;;;;;4433113;32;20245;-54
2021/10/29 11:18:35;;;;;;;13.27;7.63;;;;;;;;;;4427928;32;20213;-55
2021/10/29 11:21:25;;;;;;;15.47;9.10;;;;;;;;;;4423758;32;20664;-54
2021/10/29 11:23:54;;;;;;;12.50;7.60;;;;;;;;;;4418144;32;20243;-54
2021/10/29 11:26:25;;;;;;;10.63;7.67;;;;;;;;;;4417372;32;20607;-54
2021/10/29 11:28:52;;;;;;;14.33;8.47;;;;;;;;;;4417637;32;20215;-54
2021/10/29 11:31:36;;;;;;;18.63;9.27;;;;;;;;;;4417328;32;20680;-54
2021/10/29 11:34:05;;;;;;;16.13;7.93;;;;;;;;;;4425382;32;20197;-54
2021/10/29 11:36:33;;;;;;;12.77;7.83;;;;;;;;;;4432879;32;20661;-53
2021/10/29 11:39:00;;;;;;;10.97;7.10;;;;;;;;;;4433033;32;20684;-55
2021/10/29 11:41:32;;;;;;;12.73;7.53;;;;;;;;;;4432278;32;20236;-54
2021/10/29 11:44:02;;;;;;;11.70;7.32;;;;;;;;;;4432969;32;20588;-54
2021/10/29 11:46:29;;;;;;;19.80;12.17;;;;;;;;;;4432373;32;20244;-54
2021/10/29 11:48:54;;;;;;;15.00;8.83;;;;;;;;;;4435884;32;20733;-54
2021/10/29 11:51:23;;;;;;;18.67;10.93;;;;;;;;;;4435748;32;20244;-54
2021/10/29 11:53:58;;;;;;;15.47;9.97;;;;;;;;;;4435698;32;20605;-55
2021/10/29 11:59:05;;;;;;;11.57;7.87;;;;;;;;;;4436230;32;20304;-54
2021/10/29 12:07:18;;;;;;;22.23;13.87;;;;;;;;;;4435362;32;20243;-54
2021/10/29 12:09:47;;;;;;;19.97;10.80;;;;;;;;;;4435829;32;20228;-54
2021/10/29 12:12:17;;;;;;;17.67;11.80;;;;;;;;;;4435580;32;20704;-55
2021/10/29 12:14:46;;;;;;;22.57;12.20;;;;;;;;;;4435821;32;20185;-54
2021/10/29 12:17:34;;;;;;;16.63;9.60;;;;;;;;;;4420514;32;20566;-54
2021/10/29 12:20:05;;;;;;;11.80;9.13;;;;;;;;;;4420376;32;20213;-53
2021/10/29 12:25:27;;;;;;;15.03;8.33;;;;;;;;;;4420252;32;20239;-54
2021/10/29 13:04:03;;;;;;;8.20;6.93;;;;;;;;;;4434981;32;20197;-53
2021/10/29 13:06:35;;;;;;;11.30;6.73;;;;;;;;;;4434632;32;20246;-53
2021/10/29 13:09:09;;;;;;;20.67;11.90;;;;;;;;;;4434798;32;20204;-53
2021/10/29 13:11:38;;;;;;;21.20;13.20;;;;;;;;;;4434004;32;20977;-55
2021/10/29 13:14:05;;;;;;;17.53;10.97;;;;;;;;;;4434342;32;20248;-54
2021/10/29 13:16:31;;;;;;;14.23;9.30;;;;;;;;;;4423494;32;20224;-54
2021/10/29 13:22:39;;;;;;;13.27;9.03;;;;;;;;;;4419288;32;20404;-54
2021/10/29 13:24:59;;;;;;;14.90;9.60;;;;;;;;;;4419321;32;20268;-55
2021/10/29 14:34:17;;;;;;;51.40;25.57;;;;;;;;;;4433835;32;20268;-54
2021/10/29 14:39:39;;;;;;;37.67;17.37;;;;;;;;;;4409424;32;20235;-54
2021/10/29 14:44:59;;;;;;;28.77;17.17;;;;;;;;;;4433627;32;20870;-54
2021/10/29 14:48:04;;;;;;;26.53;16.60;;;;;;;;;;4432830;32;20538;-53
2021/10/29 14:50:25;;;;;;;27.60;16.37;;;;;;;;;;4424827;32;20252;-54
2021/10/29 15:06:27;;;;;;;41.97;22.97;;;;;;;;;;4433699;32;20247;-54
2021/10/29 15:40:53;;;;;;;39.43;23.63;;;;;;;;;;4432605;32;20260;-55
2021/10/29 15:44:06;;;;;;;46.60;25.77;;;;;;;;;;4432941;32;20281;-56
2021/10/29 15:51:48;;;;;;;59.37;32.13;;;;;;;;;;4431652;32;20216;-55
2021/10/29 15:54:13;;;;;;;105.53;58.13;;;;;;;;;;4431679;32;20691;-55
2021/10/29 15:56:46;;;;;;;62.17;34.63;;;;;;;;;;4432709;32;20213;-56
2021/10/29 16:02:03;;;;;;;66.17;36.10;;;;;;;;;;4429183;32;20406;-55
2021/10/29 16:18:08;;;;;;;67.07;31.57;;;;;;;;;;4432675;32;20231;-55
2021/10/29 16:20:34;;;;;;;58.40;32.07;;;;;;;;;;4432456;32;20767;-55
2021/10/29 16:23:02;;;;;;;48.77;30.73;;;;;;;;;;4432778;32;20307;-55
2021/10/29 16:25:47;;;;;;;46.37;29.23;;;;;;;;;;4432400;32;20239;-55
2021/10/29 16:28:14;;;;;;;48.23;30.60;;;;;;;;;;4432553;32;20360;-55
2021/10/29 16:30:39;;;;;;;52.30;29.67;;;;;;;;;;4433154;32;20220;-54
2021/10/29 16:33:08;;;;;;;49.03;29.67;;;;;;;;;;4433045;32;20771;-54
2021/10/29 16:35:36;;;;;;;45.67;27.67;;;;;;;;;;4435585;32;20290;-53
2021/10/29 16:38:07;;;;;;;48.53;29.47;;;;;;;;;;4434464;32;20228;-54
2021/10/29 16:40:34;;;;;;;55.03;26.17;;;;;;;;;;4434916;32;20637;-54
2021/10/29 16:43:00;;;;;;;46.30;26.23;;;;;;;;;;4434999;32;20253;-53
2021/10/29 16:45:26;;;;;;;55.63;31.73;;;;;;;;;;4435427;32;20477;-54
2021/10/29 16:47:52;;;;;;;48.00;30.27;;;;;;;;;;4435047;32;20605;-54
2021/10/29 16:50:20;;;;;;;47.50;30.97;;;;;;;;;;4435273;32;20276;-54
2021/10/29 16:52:46;;;;;;;45.87;29.87;;;;;;;;;;4435832;32;20296;-55
2021/10/29 16:55:12;;;;;;;51.27;28.30;;;;;;;;;;4435499;32;20314;-55
2021/10/29 16:57:38;;;;;;;46.97;29.07;;;;;;;;;;4435004;32;20252;-56
2021/10/29 17:00:06;;;;;;;49.33;27.47;;;;;;;;;;4434214;32;20224;-56
2021/10/29 17:02:31;;;;;;;51.73;28.73;;;;;;;;;;4428685;32;20335;-55
2021/10/29 17:04:57;;;;;;;58.93;31.63;;;;;;;;;;4434564;32;20213;-55
2021/10/29 17:07:22;;;;;;;70.03;41.50;;;;;;;;;;4433343;32;20565;-55
2021/10/29 17:09:52;;;;;;;70.20;42.40;;;;;;;;;;4434032;32;20303;-55
2021/10/29 17:12:18;;;;;;;72.50;41.13;;;;;;;;;;4434044;32;20267;-53
2021/10/29 17:14:45;;;;;;;78.53;47.13;;;;;;;;;;4433971;32;20386;-54
2021/10/29 17:17:10;;;;;;;95.83;50.97;;;;;;;;;;4419681;32;20221;-53
2021/10/29 17:19:36;;;;;;;88.93;51.87;;;;;;;;;;4418432;32;20338;-54
2021/10/29 17:22:01;;;;;;;104.67;59.97;;;;;;;;;;4419769;32;20730;-55
2021/10/29 17:24:27;;;;;;;144.80;72.97;;;;;;;;;;4425099;32;20193;-54
2021/10/29 17:26:53;;;;;;;106.60;61.07;;;;;;;;;;4434961;32;20293;-55
2021/10/29 17:29:21;;;;;;;115.40;59.97;;;;;;;;;;4434970;32;20276;-57
2021/10/29 17:31:46;;;;;;;97.27;50.90;;;;;;;;;;4434389;32;20370;-54
2021/10/29 17:34:12;;;;;;;64.20;37.73;;;;;;;;;;4433508;32;20288;-55
2021/10/29 17:36:37;;;;;;;64.40;38.73;;;;;;;;;;4432764;32;20336;-54
2021/10/29 17:39:04;;;;;;;55.93;33.57;;;;;;;;;;4434502;32;20399;-56
2021/10/29 17:41:29;;;;;;;45.77;29.60;;;;;;;;;;4434662;32;21029;-54
2021/10/29 17:43:55;;;;;;;71.03;39.63;;;;;;;;;;4435212;32;20318;-56
2021/10/29 17:46:20;;;;;;;86.10;47.00;;;;;;;;;;4433671;32;20240;-54
2021/10/29 17:48:46;;;;;;;92.83;51.53;;;;;;;;;;4434752;32;20633;-55
2021/10/29 17:51:11;;;;;;;119.17;58.43;;;;;;;;;;4434583;32;20315;-53
2021/10/29 17:53:37;;;;;;;115.37;63.27;;;;;;;;;;4433184;32;20284;-57
2021/10/29 17:56:04;;;;;;;121.73;63.83;;;;;;;;;;4434745;32;20720;-53
2021/10/29 17:58:30;;;;;;;124.60;67.63;;;;;;;;;;4434642;32;20605;-54
2021/10/29 18:00:55;;;;;;;124.90;72.17;;;;;;;;;;4427674;32;20277;-54
2021/10/29 18:03:22;;;;;;;138.33;74.07;;;;;;;;;;4433621;32;20217;-54
2021/10/29 18:05:48;;;;;;;122.23;67.03;;;;;;;;;;4434306;32;20307;-54
2021/10/29 18:08:16;;;;;;;127.03;65.80;;;;;;;;;;4434227;32;20298;-55
2021/10/29 18:10:42;;;;;;;122.03;62.50;;;;;;;;;;4433220;32;20653;-54
2021/10/29 18:13:08;;;;;;;107.03;57.93;;;;;;;;;;4434150;32;20621;-54
2021/10/29 18:15:34;;;;;;;105.30;57.33;;;;;;;;;;4434344;32;20325;-55
2021/10/29 18:17:59;;;;;;;93.93;51.67;;;;;;;;;;4434164;32;20300;-55
2021/10/29 18:20:25;;;;;;;90.17;52.33;;;;;;;;;;4433880;32;20803;-54
2021/10/29 18:22:51;;;;;;;99.27;56.00;;;;;;;;;;4434188;32;20209;-54
2021/10/29 18:25:17;;;;;;;82.87;49.37;;;;;;;;;;4433936;32;20335;-56
2021/10/29 18:27:43;;;;;;;71.53;42.40;;;;;;;;;;4434431;32;20714;-54
2021/10/29 18:30:10;;;;;;;49.87;26.43;;;;;;;;;;4433283;32;20232;-55
2021/10/29 18:32:36;;;;;;;41.93;24.50;;;;;;;;;;4433151;32;20768;-53
2021/10/29 18:35:02;;;;;;;51.77;28.30;;;;;;;;;;4432617;32;20319;-54
2021/10/29 18:37:30;;;;;;;55.60;27.87;;;;;;;;;;4433953;32;20279;-54
2021/10/29 18:39:56;;;;;;;57.47;31.37;;;;;;;;;;4433987;32;20333;-55
2021/10/29 18:42:21;;;;;;;62.87;32.53;;;;;;;;;;4432541;32;20233;-54
2021/10/29 18:44:48;;;;;;;56.70;28.50;;;;;;;;;;4433800;32;20284;-54
2021/10/29 18:47:13;;;;;;;50.17;24.70;;;;;;;;;;4433235;32;20279;-54
2021/10/29 18:49:40;;;;;;;51.30;26.23;;;;;;;;;;4432281;32;20527;-53
2021/10/29 18:52:06;;;;;;;50.50;23.80;;;;;;;;;;4433012;32;20221;-53
2021/10/29 18:54:32;;;;;;;43.53;24.20;;;;;;;;;;4431747;32;20287;-56
2021/10/29 18:56:57;;;;;;;48.03;25.17;;;;;;;;;;4425719;32;20240;-55
2021/10/29 18:59:23;;;;;;;49.93;26.73;;;;;;;;;;4418056;32;20285;-54
2021/10/29 19:01:50;;;;;;;53.30;28.33;;;;;;;;;;4429798;32;20273;-55
2021/10/29 19:04:16;;;;;;;59.70;35.10;;;;;;;;;;4433320;32;20675;-54
2021/10/29 19:06:43;;;;;;;50.53;28.50;;;;;;;;;;4433254;32;20289;-53
2021/10/29 19:09:09;;;;;;;43.90;27.63;;;;;;;;;;4433375;32;20229;-55
2021/10/29 19:11:39;;;;;;;54.00;25.60;;;;;;;;;;4432562;32;20266;-53
2021/10/29 19:14:09;;;;;;;40.03;19.97;;;;;;;;;;4430119;32;20264;-54
2021/10/29 19:16:35;;;;;;;32.43;15.73;;;;;;;;;;4431258;32;20235;-54
2021/10/29 19:19:00;;;;;;;33.07;17.03;;;;;;;;;;4431801;32;20328;-54
2021/10/29 19:21:26;;;;;;;39.70;21.57;;;;;;;;;;4431614;32;20376;-54
2021/10/29 19:23:52;;;;;;;44.23;23.10;;;;;;;;;;4431228;32;20305;-54